createdAt,value
2022-09-16T00:00:05.000Z,0.00
2022-09-16T00:04:59.000Z,0.00
2022-09-16T00:09:54.000Z,0.00
2022-09-16T00:14:49.000Z,0.00
2022-09-16T00:19:43.000Z,0.00
2022-09-16T00:24:38.000Z,0.00
2022-09-16T00:29:33.000Z,0.00
2022-09-16T00:34:27.000Z,0.00
2022-09-16T00:39:22.000Z,0.00
2022-09-16T00:44:16.000Z,0.00
2022-09-16T00:58:53.000Z,0.00
2022-09-16T01:03:48.000Z,0.00
2022-09-16T01:08:43.000Z,0.00
2022-09-16T01:23:20.000Z,0.00
2022-09-16T01:28:12.000Z,0.00
2022-09-16T01:42:50.000Z,0.00
2022-09-16T01:57:29.000Z,0.00
2022-09-16T02:12:07.000Z,0.00
2022-09-16T02:26:45.000Z,0.00
2022-09-16T02:41:24.000Z,0.00
2022-09-16T02:56:03.000Z,0.00
2022-09-16T03:10:41.000Z,0.00
2022-09-16T03:25:19.000Z,0.00
2022-09-16T03:39:58.000Z,0.00
2022-09-16T03:54:36.000Z,0.00
2022-09-16T04:09:15.000Z,0.00
2022-09-16T04:23:55.000Z,0.00
2022-09-16T04:38:34.000Z,0.00
2022-09-16T04:53:10.000Z,3.33
2022-09-16T05:07:49.000Z,30.83
2022-09-16T05:22:27.000Z,106.67
2022-09-16T05:37:05.000Z,255.00
2022-09-16T05:51:45.000Z,285.83
2022-09-16T06:06:24.000Z,414.17
2022-09-16T06:21:04.000Z,469.17
2022-09-16T06:35:44.000Z,628.33
2022-09-16T06:50:24.000Z,670.83
2022-09-16T07:05:05.000Z,620.00
2022-09-16T07:19:44.000Z,717.50
2022-09-16T07:34:24.000Z,809.17
2022-09-16T07:49:03.000Z,1135.00
2022-09-16T08:03:44.000Z,1376.67
2022-09-16T08:08:39.000Z,1123.33
2022-09-16T08:13:34.000Z,976.67
2022-09-16T08:18:29.000Z,966.67
2022-09-16T08:33:05.000Z,1200.83
2022-09-16T08:38:00.000Z,1575.83
2022-09-16T08:42:55.000Z,1849.17
2022-09-16T08:47:50.000Z,1343.33
2022-09-16T08:52:45.000Z,655.83
2022-09-16T08:57:40.000Z,958.33
2022-09-16T09:02:34.000Z,1049.17
2022-09-16T09:07:29.000Z,3684.17
2022-09-16T09:12:23.000Z,5331.67
2022-09-16T09:17:19.000Z,5621.67
2022-09-16T09:22:16.000Z,5606.67
2022-09-16T09:27:12.000Z,2730.00
2022-09-16T09:32:06.000Z,2701.67
2022-09-16T09:37:01.000Z,2617.50
2022-09-16T09:41:55.000Z,1655.83
2022-09-16T09:46:49.000Z,1974.17
2022-09-16T09:51:44.000Z,1757.50
2022-09-16T09:56:37.000Z,1615.00
2022-09-16T10:01:32.000Z,1968.33
2022-09-16T10:06:25.000Z,2397.50
2022-09-16T10:11:20.000Z,2606.67
2022-09-16T10:16:15.000Z,1125.83
2022-09-16T10:21:10.000Z,1343.33
2022-09-16T10:26:04.000Z,2370.83
2022-09-16T10:30:59.000Z,3211.67
2022-09-16T10:35:55.000Z,1790.83
2022-09-16T10:40:50.000Z,7785.83
2022-09-16T10:45:49.000Z,1944.17
2022-09-16T10:50:40.000Z,2170.83
2022-09-16T10:55:35.000Z,4080.00
2022-09-16T11:00:33.000Z,3496.67
2022-09-16T11:05:25.000Z,5650.00
2022-09-16T11:10:20.000Z,5033.33
2022-09-16T11:15:15.000Z,9250.83
2022-09-16T11:20:11.000Z,2500.83
2022-09-16T11:25:05.000Z,2080.83
2022-09-16T11:29:59.000Z,2488.33
2022-09-16T11:34:53.000Z,10209.17
2022-09-16T11:39:49.000Z,8628.33
2022-09-16T11:44:45.000Z,3840.00
2022-09-16T11:49:40.000Z,5692.50
2022-09-16T11:54:34.000Z,1530.83
2022-09-16T11:59:27.000Z,9770.83
2022-09-16T12:04:23.000Z,9586.67
2022-09-16T12:09:20.000Z,9530.00
2022-09-16T12:14:16.000Z,9805.00
2022-09-16T12:19:12.000Z,10101.67
2022-09-16T12:24:06.000Z,10211.67
2022-09-16T12:29:02.000Z,10374.17
2022-09-16T12:33:56.000Z,1474.17
2022-09-16T12:38:49.000Z,6617.50
2022-09-16T12:43:43.000Z,10515.83
2022-09-16T12:48:39.000Z,10884.17
2022-09-16T12:53:35.000Z,10952.50
2022-09-16T12:58:30.000Z,9715.83
2022-09-16T13:03:25.000Z,11119.17
2022-09-16T13:08:20.000Z,2295.00
2022-09-16T13:13:14.000Z,11405.00
2022-09-16T13:18:08.000Z,2627.50
2022-09-16T13:23:02.000Z,11721.67
2022-09-16T13:27:55.000Z,11726.67
2022-09-16T13:32:50.000Z,11683.33
2022-09-16T13:37:45.000Z,1820.00
2022-09-16T13:42:42.000Z,710.00
2022-09-16T13:47:31.000Z,589.17
2022-09-16T13:52:24.000Z,460.00
2022-09-16T13:57:18.000Z,529.17
2022-09-16T14:02:11.000Z,543.33
2022-09-16T14:07:04.000Z,727.50
2022-09-16T14:11:58.000Z,607.50
2022-09-16T14:16:53.000Z,619.17
2022-09-16T14:21:47.000Z,495.83
2022-09-16T14:26:41.000Z,775.83
2022-09-16T14:31:42.000Z,1540.00
2022-09-16T14:36:29.000Z,2206.67
2022-09-16T14:41:21.000Z,2262.50
2022-09-16T14:46:16.000Z,2750.83
2022-09-16T14:51:11.000Z,2705.83
2022-09-16T14:56:06.000Z,3263.33
2022-09-16T15:01:02.000Z,5526.67
2022-09-16T15:05:58.000Z,8275.83
2022-09-16T15:10:54.000Z,12369.17
2022-09-16T15:15:50.000Z,2500.83
2022-09-16T15:20:44.000Z,3029.17
2022-09-16T15:25:38.000Z,10985.83
2022-09-16T15:30:33.000Z,7459.17
2022-09-16T15:35:28.000Z,10666.67
2022-09-16T15:40:23.000Z,2141.67
2022-09-16T15:45:17.000Z,1363.33
2022-09-16T15:50:11.000Z,1480.83
2022-09-16T15:55:05.000Z,1698.33
2022-09-16T15:59:59.000Z,1872.50
2022-09-16T16:04:54.000Z,1946.67
2022-09-16T16:09:48.000Z,1475.83
2022-09-16T16:14:43.000Z,1230.00
2022-09-16T16:19:37.000Z,1215.83
2022-09-16T16:24:32.000Z,2849.17
2022-09-16T16:29:26.000Z,7122.50
2022-09-16T16:34:22.000Z,1871.67
2022-09-16T16:39:17.000Z,1306.67
2022-09-16T16:44:12.000Z,884.17
2022-09-16T16:49:05.000Z,5009.17
2022-09-16T16:53:59.000Z,2492.50
2022-09-16T16:58:53.000Z,472.50
2022-09-16T17:03:47.000Z,323.33
2022-09-16T17:08:42.000Z,281.67
2022-09-16T17:13:36.000Z,235.00
2022-09-16T17:18:30.000Z,187.50
2022-09-16T17:23:24.000Z,148.33
2022-09-16T17:28:18.000Z,114.17
2022-09-16T17:33:12.000Z,85.00
2022-09-16T17:38:07.000Z,59.17
2022-09-16T17:43:01.000Z,37.50
2022-09-16T17:47:55.000Z,20.83
2022-09-16T17:52:50.000Z,10.00
2022-09-16T17:57:44.000Z,4.17
2022-09-16T18:02:38.000Z,1.67
2022-09-16T18:07:33.000Z,0.00
2022-09-16T18:12:28.000Z,0.00
2022-09-16T18:17:22.000Z,0.00
2022-09-16T18:22:16.000Z,0.00
2022-09-16T18:27:10.000Z,0.00
2022-09-16T18:32:05.000Z,0.00
2022-09-16T18:36:59.000Z,0.00
2022-09-16T18:41:54.000Z,0.00
2022-09-16T18:46:49.000Z,0.00
2022-09-16T18:51:39.000Z,0.00
2022-09-16T18:56:33.000Z,0.00
2022-09-16T19:01:28.000Z,0.00
2022-09-16T19:06:22.000Z,0.00
2022-09-16T19:11:17.000Z,0.00
2022-09-16T19:16:11.000Z,0.00
2022-09-16T19:21:06.000Z,0.00
2022-09-16T19:26:01.000Z,0.00
2022-09-16T19:30:55.000Z,0.00
2022-09-16T19:35:50.000Z,0.00
2022-09-16T19:40:44.000Z,0.00
2022-09-16T19:45:39.000Z,0.00
2022-09-16T19:50:34.000Z,0.00
2022-09-16T19:55:28.000Z,0.00
2022-09-16T20:00:23.000Z,0.00
2022-09-16T20:05:17.000Z,0.00
2022-09-16T20:10:11.000Z,0.00
2022-09-16T20:15:08.000Z,0.00
2022-09-16T20:20:00.000Z,0.00
2022-09-16T20:24:54.000Z,0.00
2022-09-16T20:29:49.000Z,0.00
2022-09-16T20:34:44.000Z,0.00
2022-09-16T20:39:39.000Z,0.00
2022-09-16T20:44:33.000Z,0.00
2022-09-16T20:49:27.000Z,0.00
2022-09-16T20:54:21.000Z,0.00
2022-09-16T20:59:15.000Z,0.00
2022-09-16T21:04:10.000Z,0.00
2022-09-16T21:09:05.000Z,0.00
2022-09-16T21:14:00.000Z,0.00
2022-09-16T21:18:55.000Z,0.00
2022-09-16T21:23:49.000Z,0.00
2022-09-16T21:28:44.000Z,0.00
2022-09-16T21:33:38.000Z,0.00
2022-09-16T21:38:33.000Z,0.00
2022-09-16T21:43:28.000Z,0.00
2022-09-16T21:48:22.000Z,0.00
2022-09-16T21:53:17.000Z,0.00
2022-09-16T21:58:11.000Z,0.00
2022-09-16T22:03:05.000Z,0.00
2022-09-16T22:08:00.000Z,0.00
2022-09-16T22:12:54.000Z,0.00
2022-09-16T22:17:48.000Z,0.00
2022-09-16T22:22:42.000Z,0.00
2022-09-16T22:27:38.000Z,0.00
2022-09-16T22:32:31.000Z,0.00
2022-09-16T22:37:26.000Z,0.00
2022-09-16T22:42:20.000Z,0.00
2022-09-16T22:47:13.000Z,0.00
2022-09-16T22:52:07.000Z,0.00
2022-09-16T22:57:02.000Z,0.00
2022-09-16T23:01:57.000Z,0.00
2022-09-16T23:06:53.000Z,0.00
2022-09-16T23:11:44.000Z,0.00
2022-09-16T23:16:39.000Z,0.00
2022-09-16T23:21:33.000Z,0.00
2022-09-16T23:26:28.000Z,0.00
2022-09-16T23:31:23.000Z,0.00
2022-09-16T23:36:17.000Z,0.00
2022-09-16T23:41:12.000Z,0.00
2022-09-16T23:46:07.000Z,0.00
2022-09-16T23:51:02.000Z,0.00
2022-09-16T23:55:56.000Z,0.00
